createdAt,value
2019-02-05T00:04:36.963Z,25.97
2019-02-05T00:07:07.685Z,35.73
2019-02-05T00:09:38.521Z,28.93
2019-02-05T00:12:09.415Z,34.10
2019-02-05T00:14:40.371Z,30.80
2019-02-05T00:17:11.313Z,29.53
2019-02-05T00:19:41.980Z,35.90
2019-02-05T00:22:12.866Z,27.60
2019-02-05T00:24:44.166Z,30.53
2019-02-05T00:27:14.968Z,27.77
2019-02-05T00:29:45.853Z,28.77
2019-02-05T00:32:19.163Z,42.57
2019-02-05T00:34:50.011Z,34.33
2019-02-05T00:37:20.906Z,32.33
2019-02-05T00:39:52.439Z,32.23
2019-02-05T00:42:23.444Z,34.50
2019-02-05T00:44:54.090Z,37.03
2019-02-05T00:47:25.102Z,27.23
2019-02-05T00:49:55.738Z,30.30
2019-02-05T00:52:28.058Z,34.27
2019-02-05T00:54:59.233Z,28.53
2019-02-05T00:57:29.804Z,26.47
2019-02-05T01:00:00.448Z,28.27
2019-02-05T01:02:31.308Z,31.97
2019-02-05T01:05:02.414Z,34.20
2019-02-05T01:07:33.253Z,30.67
2019-02-05T01:10:05.153Z,29.97
2019-02-05T01:12:36.034Z,29.07
2019-02-05T01:15:11.176Z,31.37
2019-02-05T01:17:41.927Z,23.23
2019-02-05T01:20:19.704Z,36.20
2019-02-05T01:22:49.049Z,31.33
2019-02-05T01:25:21.295Z,27.43
2019-02-05T01:27:52.286Z,33.33
2019-02-05T01:30:26.484Z,34.50
2019-02-05T01:32:57.305Z,39.17
2019-02-05T01:35:27.961Z,24.33
2019-02-05T01:37:58.588Z,31.27
2019-02-05T01:40:29.466Z,42.17
2019-02-05T01:43:00.173Z,37.20
2019-02-05T01:45:30.937Z,35.03
2019-02-05T01:48:01.543Z,26.13
2019-02-05T01:50:33.833Z,33.97
2019-02-05T01:53:06.579Z,41.83
2019-02-05T01:55:37.426Z,31.13
2019-02-05T01:58:08.250Z,23.37
2019-02-05T02:00:40.093Z,27.07
2019-02-05T02:03:10.933Z,32.97
2019-02-05T02:05:42.114Z,27.63
2019-02-05T02:08:12.986Z,34.63
2019-02-05T02:10:43.575Z,35.03
2019-02-05T02:13:14.016Z,25.67
2019-02-05T02:15:44.706Z,22.97
2019-02-05T02:18:15.495Z,24.03
2019-02-05T02:20:47.240Z,18.97
2019-02-05T02:23:17.822Z,30.57
2019-02-05T02:25:48.425Z,25.67
2019-02-05T02:28:19.341Z,27.73
2019-02-05T02:30:50.146Z,27.13
2019-02-05T02:33:20.960Z,28.90
2019-02-05T02:35:51.615Z,23.33
2019-02-05T02:38:22.409Z,23.13
2019-02-05T02:40:52.955Z,28.63
2019-02-05T02:43:23.643Z,26.53
2019-02-05T02:45:54.840Z,25.87
2019-02-05T02:48:25.428Z,27.27
2019-02-05T02:50:56.090Z,24.00
2019-02-05T02:53:26.713Z,28.53
2019-02-05T02:55:57.434Z,18.23
2019-02-05T02:58:28.272Z,24.73
2019-02-05T03:00:58.969Z,20.33
2019-02-05T03:03:29.752Z,19.97
2019-02-05T03:06:00.638Z,29.10
2019-02-05T03:08:31.252Z,21.37
2019-02-05T03:11:01.859Z,28.47
2019-02-05T03:13:32.858Z,23.63
2019-02-05T03:16:04.139Z,24.80
2019-02-05T03:18:34.822Z,20.53
2019-02-05T03:21:06.563Z,22.67
2019-02-05T03:23:37.040Z,31.77
2019-02-05T03:26:07.792Z,23.83
2019-02-05T03:28:38.329Z,20.97
2019-02-05T03:31:08.933Z,24.87
2019-02-05T03:33:39.924Z,31.03
2019-02-05T03:36:10.594Z,26.80
2019-02-05T03:38:41.429Z,14.50
2019-02-05T03:41:12.298Z,21.07
2019-02-05T03:43:43.168Z,17.33
2019-02-05T03:46:14.156Z,22.43
2019-02-05T03:48:47.758Z,19.57
2019-02-05T03:51:25.955Z,24.90
2019-02-05T03:54:06.519Z,19.20
2019-02-05T03:56:57.955Z,19.33
2019-02-05T03:59:56.954Z,18.37
2019-02-05T04:02:48.371Z,24.23
2019-02-05T04:05:41.180Z,26.50
2019-02-05T04:08:31.380Z,20.90
2019-02-05T04:11:22.371Z,22.87
2019-02-05T04:14:09.377Z,13.17
2019-02-05T04:20:39.141Z,12.33
2019-02-05T04:24:00.906Z,13.57
2019-02-05T04:27:17.278Z,12.47
2019-02-05T04:30:31.335Z,10.80
2019-02-05T04:33:09.492Z,16.13
2019-02-05T04:36:04.960Z,18.33
2019-02-05T04:38:47.489Z,21.23
2019-02-05T04:41:41.929Z,13.57
2019-02-05T04:44:47.158Z,15.97
2019-02-05T04:47:51.909Z,18.57
2019-02-05T08:13:57.234Z,6.60
2019-02-05T08:16:27.817Z,6.00
2019-02-05T08:18:58.336Z,7.43
2019-02-05T08:21:28.862Z,8.77
2019-02-05T08:23:59.392Z,7.83
2019-02-05T08:26:29.933Z,4.43
2019-02-05T08:29:00.439Z,6.20
2019-02-05T08:31:31.218Z,6.27
2019-02-05T08:34:03.293Z,5.73
2019-02-05T08:36:33.884Z,6.03
2019-02-05T08:39:06.772Z,3.83
2019-02-05T08:41:37.185Z,7.13
2019-02-05T08:44:07.680Z,5.40
2019-02-05T08:46:38.322Z,5.33
2019-02-05T08:49:08.808Z,5.00
2019-02-05T08:51:39.231Z,5.27
2019-02-05T08:54:09.663Z,7.37
2019-02-05T08:56:40.189Z,4.23
2019-02-05T08:59:10.658Z,5.30
2019-02-05T09:01:41.464Z,7.50
2019-02-05T09:04:11.963Z,5.00
2019-02-05T09:06:42.406Z,6.27
2019-02-05T09:09:12.871Z,4.93
2019-02-05T09:11:43.450Z,5.53
2019-02-05T09:14:13.897Z,6.37
2019-02-05T09:16:44.523Z,4.30
2019-02-05T09:19:15.229Z,5.08
2019-02-05T09:21:46.227Z,4.47
2019-02-05T09:24:17.275Z,4.92
2019-02-05T09:26:48.289Z,4.85
2019-02-05T09:29:18.719Z,6.47
2019-02-05T09:31:49.177Z,5.30
2019-02-05T09:34:20.139Z,6.83
2019-02-05T09:36:51.224Z,9.50
2019-02-05T09:39:21.655Z,9.93
2019-02-05T09:41:52.974Z,7.10
2019-02-05T09:44:23.982Z,8.33
2019-02-05T09:46:55.003Z,6.30
2019-02-05T09:49:26.271Z,6.95
2019-02-05T09:51:56.708Z,6.30
2019-02-05T09:54:27.814Z,6.40
2019-02-05T09:56:58.234Z,6.83
2019-02-05T09:59:29.059Z,5.40
2019-02-05T10:01:59.506Z,7.30
2019-02-05T10:04:29.943Z,5.00
2019-02-05T10:07:00.375Z,5.90
2019-02-05T10:09:30.862Z,6.40
2019-02-05T10:12:02.253Z,7.37
2019-02-05T10:14:33.045Z,7.63
2019-02-05T10:17:03.514Z,8.57
2019-02-05T10:19:33.971Z,6.73
2019-02-05T10:22:04.743Z,6.30
2019-02-05T10:24:35.262Z,6.83
2019-02-05T10:27:05.925Z,5.63
2019-02-05T10:29:36.623Z,6.30
2019-02-05T10:32:07.076Z,6.57
2019-02-05T10:34:37.491Z,6.03
2019-02-05T10:37:07.942Z,5.73
2019-02-05T10:39:38.387Z,5.27
2019-02-05T10:42:08.890Z,5.30
2019-02-05T10:44:39.517Z,5.57
2019-02-05T10:47:09.958Z,5.00
2019-02-05T10:49:40.385Z,4.87
2019-02-05T10:52:11.482Z,4.75
2019-02-05T10:54:41.958Z,5.30
2019-02-05T10:57:12.439Z,5.20
2019-02-05T10:59:43.646Z,4.45
2019-02-05T11:02:14.800Z,4.92
2019-02-05T11:04:45.234Z,4.03
2019-02-05T11:07:16.279Z,4.60
2019-02-05T11:09:47.335Z,4.62
2019-02-05T11:12:17.757Z,3.98
2019-02-05T11:14:48.806Z,4.45
2019-02-05T11:17:19.901Z,3.90
2019-02-05T11:19:50.918Z,4.85
2019-02-05T11:22:21.943Z,4.62
2019-02-05T11:24:52.996Z,4.55
2019-02-05T11:27:24.040Z,4.05
2019-02-05T11:29:55.061Z,4.03
2019-02-05T11:32:26.078Z,5.95
2019-02-05T11:34:57.077Z,4.45
2019-02-05T11:37:28.085Z,5.03
2019-02-05T11:39:59.123Z,5.95
2019-02-05T11:42:30.341Z,5.42
2019-02-05T11:45:01.354Z,3.98
2019-02-05T11:47:32.398Z,4.58
2019-02-05T11:50:04.930Z,4.35
2019-02-05T11:52:35.963Z,3.70
2019-02-05T11:55:11.945Z,3.65
2019-02-05T11:57:43.052Z,3.90
2019-02-05T12:00:31.856Z,3.17
2019-02-05T12:02:52.715Z,4.25
2019-02-05T12:05:23.738Z,4.67
2019-02-05T12:07:55.023Z,4.70
2019-02-05T12:10:26.046Z,4.95
2019-02-05T12:12:57.093Z,3.90
2019-02-05T12:15:28.136Z,4.55
2019-02-05T12:17:59.148Z,5.58
2019-02-05T12:20:30.434Z,4.33
2019-02-05T12:23:02.563Z,4.70
2019-02-05T12:25:33.594Z,4.80
2019-02-05T12:28:05.323Z,4.58
2019-02-05T12:30:45.371Z,5.25
2019-02-05T12:33:16.255Z,4.17
2019-02-05T12:35:47.486Z,4.70
2019-02-05T12:38:18.586Z,5.72
2019-02-05T12:40:49.609Z,4.97
2019-02-05T12:43:20.635Z,5.03
2019-02-05T12:45:51.711Z,6.10
2019-02-05T12:48:22.735Z,5.78
2019-02-05T12:50:53.766Z,5.58
2019-02-05T12:53:24.838Z,6.03
2019-02-05T12:55:55.863Z,6.03
2019-02-05T12:58:27.222Z,8.20
2019-02-05T13:01:01.186Z,6.60
2019-02-05T13:03:32.099Z,5.17
2019-02-05T13:06:03.147Z,5.45
2019-02-05T13:08:34.251Z,5.12
2019-02-05T13:11:05.427Z,4.95
2019-02-05T13:13:36.603Z,6.42
2019-02-05T13:16:07.967Z,5.25
2019-02-05T13:18:39.033Z,5.53
2019-02-05T13:21:09.534Z,5.30
2019-02-05T13:23:40.289Z,5.10
2019-02-05T13:26:11.084Z,7.47
2019-02-05T13:28:41.845Z,6.42
2019-02-05T13:31:12.555Z,10.08
2019-02-05T13:33:43.428Z,5.62
2019-02-05T13:36:14.539Z,5.53
2019-02-05T13:38:45.271Z,4.95
2019-02-05T13:41:16.319Z,5.08
2019-02-05T13:43:47.497Z,6.92
2019-02-05T13:46:17.899Z,4.97
2019-02-05T13:48:48.407Z,4.45
2019-02-05T13:51:18.902Z,7.50
2019-02-05T13:53:49.357Z,5.28
2019-02-05T13:56:19.919Z,5.65
2019-02-05T13:58:50.428Z,4.70
2019-02-05T14:01:21.656Z,6.22
2019-02-05T14:03:52.479Z,5.85
2019-02-05T14:06:22.987Z,5.62
2019-02-05T14:08:53.601Z,4.95
2019-02-05T14:11:24.644Z,4.03
2019-02-05T14:13:55.257Z,4.87
2019-02-05T14:16:26.945Z,3.95
2019-02-05T14:18:57.399Z,4.33
2019-02-05T14:21:27.899Z,4.57
2019-02-05T14:23:58.375Z,8.90
2019-02-05T14:26:29.052Z,6.00
2019-02-05T14:28:59.579Z,5.33
2019-02-05T14:31:31.631Z,5.23
2019-02-05T14:34:02.223Z,4.20
2019-02-05T14:36:33.012Z,5.40
2019-02-05T14:39:05.063Z,4.60
2019-02-05T14:41:35.617Z,4.57
2019-02-05T14:44:06.263Z,4.30
2019-02-05T14:46:36.745Z,5.73
2019-02-05T14:49:07.214Z,6.97
2019-02-05T14:51:37.800Z,5.27
2019-02-05T14:54:08.340Z,5.40
2019-02-05T14:56:38.816Z,5.10
2019-02-05T14:59:09.824Z,5.00
2019-02-05T15:01:43.224Z,4.57
2019-02-05T15:04:12.555Z,4.90
2019-02-05T15:06:43.709Z,3.73
2019-02-05T15:09:14.214Z,3.90
2019-02-05T15:11:44.747Z,4.23
2019-02-05T15:14:15.296Z,4.47
2019-02-05T15:16:46.007Z,4.77
2019-02-05T15:19:16.611Z,4.00
2019-02-05T15:21:48.062Z,4.93
2019-02-05T15:24:18.639Z,4.40
2019-02-05T15:26:49.142Z,3.60
2019-02-05T15:29:20.419Z,6.13
2019-02-05T15:31:54.610Z,4.73
2019-02-05T15:34:24.624Z,4.13
2019-02-05T15:36:55.448Z,5.00
2019-02-05T15:39:26.412Z,4.17
2019-02-05T15:41:58.175Z,5.83
2019-02-05T15:44:29.339Z,4.17
2019-02-05T15:47:05.540Z,6.23
2019-02-05T15:49:39.227Z,4.50
2019-02-05T15:55:25.462Z,4.80
2019-02-05T15:58:14.638Z,4.50
2019-02-05T16:01:12.818Z,4.20
